Weather at Transener S.A. Heliport

Public forecast

Using degrees Celsius for public forecast. Weather courtesy of forecast.io.

Closest aviation weather report (METAR) to Transener S.A. Heliport

Closest report is El Plumerillo Airport, 19.2 nm (35.6 km) NNW. Retrieved 2020/11/27 16:00 UTC (34 minutes ago):

SAME 271600Z 05008KT CAVOK 28/09 Q1010

Closest aviation forecast (TAF) to Transener S.A. Heliport

Closest forecast is El Plumerillo Airport, 19.2 nm (35.6 km) NNW. Retrieved 2020/11/27 12:00 UTC (5 hours ago):

TAF SAME 271100Z 2712/2812 VRB03KT CAVOK TX33/2720Z TN17/2810Z BECMG 2714/2716 03010KT BECMG 2723/2801 VRB03KT BECMG 2808/2810 16015KT TEMPO 2810/2812 6000 TSRA BKN030 FEW040CB